Time;durP1;ratioP1;P1;durP2;ratioP2;P2;SDS_P1;SDS_P2;PMS_P1;PMS_P2;Temp;Humidity;BMP_temperature;BMP_pressure;BME280_temperature;BME280_humidity;BME280_pressure;Samples;Min_cycle;Max_cycle;Signal;HPM_P1;HPM_P2
2023/08/06 00:03:43;;;;;;;1.27;1.27;;;;;;;14.64;100.00;100380.59;10582953;28;20042;-68
2023/08/06 00:08:44;;;;;;;0.52;0.52;;;;;;;14.64;100.00;100382.47;10583536;28;20043;-68
2023/08/06 00:13:44;;;;;;;0.75;0.75;;;;;;;14.68;100.00;100383.66;10582185;28;20046;-68
2023/08/06 00:18:44;;;;;;;0.32;0.32;;;;;;;14.73;100.00;100380.22;10582516;28;20039;-68
2023/08/06 00:23:45;;;;;;;2.40;1.05;;;;;;;14.72;100.00;100376.66;10583517;28;20055;-67
2023/08/06 00:28:45;;;;;;;0.40;0.40;;;;;;;14.75;100.00;100380.81;10583090;28;20032;-69
2023/08/06 00:33:46;;;;;;;0.30;0.30;;;;;;;14.76;100.00;100383.28;10586317;28;20055;-68
2023/08/06 00:38:46;;;;;;;1.98;1.88;;;;;;;14.72;100.00;100384.00;10580938;28;20367;-68
2023/08/06 00:43:46;;;;;;;4.90;4.55;;;;;;;14.74;100.00;100376.41;10580043;28;20054;-68
2023/08/06 00:48:47;;;;;;;0.47;0.47;;;;;;;14.68;100.00;100380.94;10581848;28;20028;-68
2023/08/06 00:53:48;;;;;;;0.30;0.30;;;;;;;14.64;100.00;100380.59;10581585;28;20038;-69
2023/08/06 00:58:48;;;;;;;0.98;0.98;;;;;;;14.65;100.00;100382.22;10563051;28;20043;-68
2023/08/06 01:03:49;;;;;;;0.50;0.50;;;;;;;14.69;100.00;100373.59;10579793;28;20043;-69
2023/08/06 01:08:54;;;;;;;0.50;0.50;;;;;;;14.70;100.00;100388.84;10579491;28;20040;-69
2023/08/06 01:14:10;;;;;;;1.90;1.17;;;;;;;14.71;100.00;100390.50;10580170;28;20040;-70
2023/08/06 01:19:17;;;;;;;0.30;0.30;;;;;;;14.75;100.00;100389.00;10563719;28;20114;-69
2023/08/06 01:24:17;;;;;;;2.90;2.67;;;;;;;14.81;100.00;100390.78;10579485;28;20035;-69
2023/08/06 01:29:22;;;;;;;0.60;0.60;;;;;;;14.87;100.00;100400.72;10579576;28;20047;-69
2023/08/06 01:34:28;;;;;;;0.50;0.50;;;;;;;14.88;100.00;100402.38;10578407;28;20463;-69
2023/08/06 01:39:29;;;;;;;0.97;0.97;;;;;;;14.82;100.00;100398.69;10578287;28;20105;-70
2023/08/06 01:44:30;;;;;;;0.75;0.75;;;;;;;14.86;100.00;100408.03;10560806;28;20030;-69
2023/08/06 01:49:30;;;;;;;0.45;0.45;;;;;;;14.89;100.00;100413.03;10578688;28;20195;-69
2023/08/06 01:54:31;;;;;;;0.35;0.35;;;;;;;14.91;100.00;100415.53;10578450;28;20092;-70
2023/08/06 01:59:31;;;;;;;0.40;0.40;;;;;;;14.89;100.00;100410.28;10578873;28;20032;-70
2023/08/06 02:04:31;;;;;;;0.20;0.20;;;;;;;14.85;100.00;100419.19;10576985;28;20104;-69
2023/08/06 02:09:32;;;;;;;1.00;1.00;;;;;;;14.89;100.00;100421.19;10577296;28;20028;-70
2023/08/06 02:14:32;;;;;;;1.50;1.40;;;;;;;14.95;100.00;100435.78;10577414;28;20030;-70
2023/08/06 02:19:33;;;;;;;0.65;0.65;;;;;;;14.93;100.00;100431.63;10577141;28;20043;-70
2023/08/06 02:24:33;;;;;;;0.55;0.55;;;;;;;14.88;100.00;100429.63;10578027;28;20508;-72
2023/08/06 02:29:33;;;;;;;0.30;0.30;;;;;;;14.84;100.00;100442.09;10576497;28;20067;-70
2023/08/06 02:34:34;;;;;;;0.93;0.93;;;;;;;14.76;100.00;100429.63;10576814;28;20398;-71
2023/08/06 02:39:35;;;;;;;0.20;0.20;;;;;;;14.68;100.00;100432.72;10577007;28;20080;-70
2023/08/06 02:44:36;;;;;;;0.20;0.20;;;;;;;14.64;100.00;100435.09;10575898;28;20028;-70
2023/08/06 02:49:36;;;;;;;0.30;0.30;;;;;;;14.54;100.00;100445.72;10577341;28;20032;-70
2023/08/06 02:54:36;;;;;;;0.20;0.20;;;;;;;14.55;100.00;100444.66;10577593;28;20521;-70
2023/08/06 02:59:37;;;;;;;0.52;0.52;;;;;;;14.53;100.00;100438.63;10578502;28;20054;-70
2023/08/06 03:04:37;;;;;;;0.25;0.25;;;;;;;14.55;100.00;100441.09;10581282;28;20036;-71
2023/08/06 03:09:38;;;;;;;0.25;0.25;;;;;;;14.50;100.00;100447.22;10576445;28;20158;-71
2023/08/06 03:14:38;;;;;;;0.40;0.40;;;;;;;14.48;100.00;100452.06;10576605;28;20035;-70
2023/08/06 03:19:38;;;;;;;1.13;1.10;;;;;;;14.52;100.00;100461.50;10584639;28;20385;-71
2023/08/06 03:24:39;;;;;;;0.50;0.50;;;;;;;14.51;100.00;100462.53;10584848;28;20036;-71
2023/08/06 03:29:39;;;;;;;3.47;2.45;;;;;;;14.52;100.00;100471.56;10584612;28;20127;-71
2023/08/06 03:34:39;;;;;;;0.22;0.22;;;;;;;14.55;100.00;100481.97;10584437;28;20031;-72
2023/08/06 03:39:40;;;;;;;0.40;0.40;;;;;;;14.39;100.00;100480.75;10584308;28;20031;-72
2023/08/06 03:44:40;;;;;;;0.30;0.30;;;;;;;14.25;100.00;100487.44;10583176;28;20119;-71
2023/08/06 03:49:41;;;;;;;0.30;0.30;;;;;;;14.03;100.00;100487.09;10583463;28;20042;-72
2023/08/06 03:54:42;;;;;;;0.50;0.50;;;;;;;13.95;100.00;100496.44;10583163;28;20035;-72
2023/08/06 03:59:43;;;;;;;0.55;0.55;;;;;;;13.91;100.00;100498.78;10583905;28;20034;-71
2023/08/06 04:04:43;;;;;;;0.30;0.30;;;;;;;13.90;100.00;100508.00;10584029;28;20459;-72
2023/08/06 04:09:54;;;;;;;0.30;0.30;;;;;;;13.75;100.00;100504.00;10582536;28;20281;-73
2023/08/06 04:14:56;;;;;;;0.40;0.40;;;;;;;13.61;100.00;100500.63;10547354;28;20040;-72
2023/08/06 04:20:00;;;;;;;2.15;2.05;;;;;;;13.57;100.00;100505.69;10582427;28;20451;-72
2023/08/06 04:25:00;;;;;;;0.30;0.30;;;;;;;13.57;100.00;100519.28;10581435;28;20504;-72
2023/08/06 04:30:01;;;;;;;0.60;0.60;;;;;;;13.61;100.00;100522.38;10582384;28;20039;-72
2023/08/06 04:35:01;;;;;;;0.38;0.38;;;;;;;13.63;100.00;100529.28;10563787;28;20478;-72
2023/08/06 04:40:02;;;;;;;0.50;0.50;;;;;;;13.65;100.00;100532.56;10582226;28;20039;-71
2023/08/06 04:45:02;;;;;;;0.28;0.28;;;;;;;13.72;100.00;100544.25;10580841;28;20050;-71
2023/08/06 04:50:03;;;;;;;1.88;1.13;;;;;;;13.82;100.00;100551.03;10553762;28;20031;-72
2023/08/06 04:55:05;;;;;;;0.75;0.75;;;;;;;13.90;100.00;100543.38;10539265;28;20118;-72
2023/08/06 05:00:06;;;;;;;0.60;0.60;;;;;;;13.96;100.00;100552.53;10539234;28;20028;-72
2023/08/06 05:05:07;;;;;;;0.30;0.30;;;;;;;14.05;100.00;100566.69;10538965;28;20116;-72
2023/08/06 05:10:08;;;;;;;0.40;0.40;;;;;;;14.07;100.00;100565.41;10536801;28;20085;-71
2023/08/06 05:15:08;;;;;;;1.05;1.05;;;;;;;14.06;100.00;100569.16;10536451;28;20040;-71
2023/08/06 05:20:10;;;;;;;3.15;2.95;;;;;;;14.15;100.00;100575.13;10537122;28;20586;-71
2023/08/06 05:25:13;;;;;;;0.20;0.20;;;;;;;14.17;100.00;100578.47;10537989;28;20036;-71
2023/08/06 05:30:13;;;;;;;0.52;0.52;;;;;;;14.10;100.00;100594.03;10537895;28;20028;-71
2023/08/06 05:35:14;;;;;;;0.40;0.40;;;;;;;14.10;100.00;100594.88;10539505;28;20147;-71
2023/08/06 05:40:14;;;;;;;1.80;1.75;;;;;;;14.09;100.00;100606.81;10539553;28;20132;-71
2023/08/06 05:45:15;;;;;;;0.28;0.28;;;;;;;14.13;100.00;100620.81;10535368;28;20032;-71
2023/08/06 05:50:15;;;;;;;0.88;0.88;;;;;;;14.10;100.00;100615.81;10535282;28;20126;-71
2023/08/06 05:55:15;;;;;;;1.45;1.38;;;;;;;14.17;100.00;100609.25;10535494;28;20130;-71
2023/08/06 06:00:16;;;;;;;0.30;0.30;;;;;;;14.24;100.00;100627.41;10536701;28;20028;-70
2023/08/06 06:05:16;;;;;;;0.30;0.30;;;;;;;14.29;100.00;100628.34;10536611;28;20036;-71
2023/08/06 06:10:17;;;;;;;0.40;0.40;;;;;;;14.39;100.00;100630.56;10535294;28;20116;-71
2023/08/06 06:15:17;;;;;;;0.30;0.30;;;;;;;14.42;100.00;100640.97;10534110;28;20475;-71
2023/08/06 06:20:18;;;;;;;0.30;0.30;;;;;;;14.39;100.00;100645.00;10536027;28;20024;-72
2023/08/06 06:25:18;;;;;;;0.20;0.20;;;;;;;14.42;100.00;100643.69;10534553;28;20063;-70
2023/08/06 06:30:18;;;;;;;0.30;0.30;;;;;;;14.45;100.00;100642.41;10534697;28;20032;-71
2023/08/06 06:35:19;;;;;;;0.40;0.40;;;;;;;14.43;100.00;100650.84;10535708;28;20056;-72
2023/08/06 06:40:19;;;;;;;0.40;0.40;;;;;;;14.50;100.00;100656.19;10535090;28;20044;-71
2023/08/06 06:45:19;;;;;;;0.50;0.50;;;;;;;14.63;100.00;100661.50;10533591;28;20104;-71
2023/08/06 06:50:20;;;;;;;0.30;0.30;;;;;;;14.75;100.00;100669.72;10538174;28;20119;-72
2023/08/06 06:55:20;;;;;;;0.40;0.40;;;;;;;14.80;100.00;100676.13;10544205;28;20043;-71
2023/08/06 07:00:21;;;;;;;0.40;0.40;;;;;;;14.86;100.00;100677.94;10542514;28;20135;-71
2023/08/06 07:05:21;;;;;;;0.30;0.30;;;;;;;14.93;100.00;100680.56;10543788;28;20173;-72
2023/08/06 07:10:21;;;;;;;0.40;0.40;;;;;;;15.03;100.00;100678.13;10543542;28;20032;-72
2023/08/06 07:15:22;;;;;;;0.47;0.47;;;;;;;15.26;100.00;100682.00;10542086;28;20071;-72
2023/08/06 07:20:22;;;;;;;0.40;0.40;;;;;;;15.51;100.00;100684.53;10543068;28;20115;-72
2023/08/06 07:25:23;;;;;;;0.45;0.45;;;;;;;15.97;100.00;100681.00;10508125;28;20036;-72
2023/08/06 07:30:23;;;;;;;0.40;0.40;;;;;;;16.35;100.00;100696.03;10542335;28;20392;-72
2023/08/06 07:35:24;;;;;;;0.70;0.70;;;;;;;16.84;100.00;100701.97;10540531;28;20083;-72
2023/08/06 07:40:24;;;;;;;7.47;2.22;;;;;;;17.19;100.00;100701.81;10541106;28;20039;-73
2023/08/06 07:45:26;;;;;;;0.50;0.50;;;;;;;18.14;100.00;100693.78;10542907;28;20101;-72
2023/08/06 07:50:27;;;;;;;0.70;0.70;;;;;;;18.93;100.00;100698.91;10541359;28;20035;-73
2023/08/06 07:55:27;;;;;;;2.75;2.55;;;;;;;18.31;100.00;100705.53;10539993;28;20119;-72
2023/08/06 08:00:28;;;;;;;1.73;1.63;;;;;;;18.07;100.00;100701.34;10543411;28;20047;-75
2023/08/06 08:05:28;;;;;;;5.43;2.25;;;;;;;18.76;100.00;100701.72;10543889;28;20036;-75
2023/08/06 08:10:28;;;;;;;2.50;1.88;;;;;;;18.44;100.00;100706.22;10553951;28;20438;-75
2023/08/06 08:15:29;;;;;;;2.80;1.80;;;;;;;18.25;100.00;100701.06;10540087;28;20031;-75
2023/08/06 08:20:31;;;;;;;4.88;1.50;;;;;;;18.34;100.00;100702.25;10539638;28;20032;-76
2023/08/06 08:25:32;;;;;;;3.13;1.70;;;;;;;18.79;100.00;100709.44;10523447;28;20106;-77
2023/08/06 08:30:32;;;;;;;6.57;2.53;;;;;;;19.21;100.00;100716.22;10542676;28;20047;-80
2023/08/06 08:35:33;;;;;;;1.70;1.60;;;;;;;19.54;100.00;100719.78;10595721;28;20052;-78
2023/08/06 08:40:33;;;;;;;1.50;1.40;;;;;;;19.78;100.00;100720.28;10587972;28;20272;-77
2023/08/06 08:45:33;;;;;;;2.60;1.45;;;;;;;20.02;100.00;100727.06;10568548;28;20489;-77
2023/08/06 08:50:34;;;;;;;3.13;2.53;;;;;;;21.21;100.00;100726.50;10586666;28;20039;-75
2023/08/06 08:55:34;;;;;;;2.10;1.95;;;;;;;21.65;100.00;100729.59;10579756;28;20036;-75
2023/08/06 09:00:35;;;;;;;3.47;2.05;;;;;;;22.24;100.00;100728.19;10563279;28;20044;-75
2023/08/06 09:05:35;;;;;;;3.22;1.38;;;;;;;22.94;100.00;100740.09;10579246;28;20027;-75
2023/08/06 09:10:36;;;;;;;1.70;1.60;;;;;;;22.46;100.00;100750.75;10581198;28;20043;-76
2023/08/06 09:15:37;;;;;;;1.67;1.58;;;;;;;21.90;100.00;100750.81;10561278;28;20348;-76
2023/08/06 09:20:38;;;;;;;1.88;1.77;;;;;;;21.56;100.00;100756.88;10562185;28;20035;-76
2023/08/06 09:25:41;;;;;;;3.83;1.85;;;;;;;22.05;100.00;100761.00;10579748;28;20138;-75
2023/08/06 09:30:42;;;;;;;4.00;1.52;;;;;;;22.44;100.00;100755.72;10578187;28;20046;-72
2023/08/06 09:35:42;;;;;;;2.40;1.80;;;;;;;22.65;100.00;100766.69;10578838;28;20078;-73
2023/08/06 09:40:42;;;;;;;2.50;1.35;;;;;;;23.54;100.00;100772.31;10579419;28;20127;-75
2023/08/06 09:45:43;;;;;;;3.03;1.45;;;;;;;23.90;100.00;100787.56;10578864;28;20486;-74
2023/08/06 09:50:45;;;;;;;12.45;1.92;;;;;;;24.16;100.00;100779.03;10580487;28;20040;-78
2023/08/06 09:55:45;;;;;;;1.63;1.52;;;;;;;24.77;100.00;100789.47;10580026;28;20028;-76
2023/08/06 10:00:46;;;;;;;1.10;1.10;;;;;;;24.90;100.00;100793.47;10579651;28;20079;-74
2023/08/06 10:05:46;;;;;;;1.95;1.67;;;;;;;25.96;100.00;100797.78;10560179;28;20032;-75
2023/08/06 10:10:47;;;;;;;8.23;2.05;;;;;;;25.86;100.00;100787.69;10576111;28;20064;-74
2023/08/06 10:15:47;;;;;;;2.05;1.85;;;;;;;26.04;100.00;100805.44;10576193;28;20061;-74
2023/08/06 10:20:48;;;;;;;2.28;1.65;;;;;;;26.36;100.00;100807.34;10558920;28;20470;-75
2023/08/06 10:25:53;;;;;;;4.40;2.20;;;;;;;27.17;100.00;100808.84;10576066;28;20040;-73
2023/08/06 10:30:53;;;;;;;1.40;1.00;;;;;;;26.27;100.00;100809.19;10577978;28;20386;-74
2023/08/06 10:35:54;;;;;;;1.20;1.20;;;;;;;26.31;100.00;100817.72;10579093;28;20047;-74
2023/08/06 10:40:56;;;;;;;1.88;1.58;;;;;;;26.91;100.00;100817.69;10559233;28;20053;-72
2023/08/06 10:45:58;;;;;;;1.33;1.33;;;;;;;26.73;100.00;100811.09;10577179;28;20467;-71
2023/08/06 10:50:59;;;;;;;1.55;1.52;;;;;;;27.17;100.00;100808.84;10576832;28;20100;-72
2023/08/06 10:56:01;;;;;;;1.15;1.08;;;;;;;26.34;100.00;100820.69;10577086;28;20031;-72
2023/08/06 11:01:02;;;;;;;1.50;1.40;;;;;;;24.43;100.00;100821.97;10559057;28;20118;-73
2023/08/06 11:06:02;;;;;;;3.03;1.85;;;;;;;23.06;100.00;100827.31;10576143;28;20046;-73
2023/08/06 11:11:13;;;;;;;4.50;1.88;;;;;;;22.94;100.00;100827.63;10558824;28;20456;-72
2023/08/06 11:16:32;;;;;;;2.65;1.50;;;;;;;23.26;100.00;100840.19;10575248;28;20035;-74
2023/08/06 11:21:32;;;;;;;11.38;2.42;;;;;;;22.84;100.00;100838.66;10576181;28;20034;-72
2023/08/06 11:26:32;;;;;;;1.27;1.23;;;;;;;20.41;100.00;100851.34;10576684;28;20522;-72
2023/08/06 11:31:33;;;;;;;2.30;2.13;;;;;;;19.25;100.00;100847.19;10575276;28;20036;-73
2023/08/06 11:36:34;;;;;;;2.40;2.17;;;;;;;18.94;100.00;100856.97;10558951;28;20059;-73
2023/08/06 11:41:37;;;;;;;9.00;2.15;;;;;;;19.48;100.00;100858.97;10583286;28;20042;-72
2023/08/06 11:46:56;;;;;;;0.88;0.88;;;;;;;21.25;100.00;100846.03;10583581;27;20420;-73
2023/08/06 11:51:57;;;;;;;1.60;1.48;;;;;;;22.18;100.00;100845.97;10582666;28;20115;-74
2023/08/06 11:56:57;;;;;;;1.13;1.13;;;;;;;22.48;100.00;100847.88;10582190;28;20088;-74
2023/08/06 12:01:57;;;;;;;1.23;1.17;;;;;;;23.39;100.00;100848.69;10581927;28;20044;-75
2023/08/06 12:07:10;;;;;;;1.52;1.42;;;;;;;24.54;100.00;100849.25;10583159;28;20046;-72
2023/08/06 12:12:10;;;;;;;1.40;1.35;;;;;;;24.64;100.00;100850.28;10582573;28;20471;-74
2023/08/06 12:17:10;;;;;;;0.95;0.95;;;;;;;24.98;100.00;100852.91;10582474;28;20039;-73
2023/08/06 12:22:11;;;;;;;2.65;1.17;;;;;;;26.15;100.00;100862.41;10582858;28;20063;-73
2023/08/06 12:27:11;;;;;;;2.25;0.80;;;;;;;25.55;100.00;100880.78;10574817;28;20371;-72
2023/08/06 12:32:12;;;;;;;3.47;0.98;;;;;;;23.97;100.00;100883.22;10546985;28;20123;-75
2023/08/06 12:37:12;;;;;;;1.48;1.30;;;;;;;23.98;100.00;100893.97;10580774;28;20062;-75
2023/08/06 12:42:13;;;;;;;0.60;0.60;;;;;;;23.90;100.00;100895.44;10580609;28;20106;-76
2023/08/06 12:47:13;;;;;;;0.77;0.77;;;;;;;23.46;100.00;100892.59;10579682;28;20035;-78
2023/08/06 12:52:15;;;;;;;1.98;0.95;;;;;;;22.74;100.00;100898.31;10583164;28;20063;-73
2023/08/06 12:57:15;;;;;;;0.75;0.75;;;;;;;22.42;100.00;100911.63;10579404;28;20067;-77
2023/08/06 13:02:15;;;;;;;0.82;0.82;;;;;;;21.36;100.00;100911.94;10581185;28;20069;-74
2023/08/06 13:07:16;;;;;;;2.58;1.15;;;;;;;20.59;100.00;100926.34;10584697;28;20390;-75
2023/08/06 13:12:18;;;;;;;3.45;1.13;;;;;;;20.05;100.00;100935.44;10586330;28;20059;-74
2023/08/06 13:17:19;;;;;;;4.15;1.25;;;;;;;19.66;100.00;100930.09;10582877;28;20157;-74
2023/08/06 13:22:19;;;;;;;6.50;2.53;;;;;;;18.83;100.00;100955.88;10579860;28;20535;-72
2023/08/06 13:27:20;;;;;;;3.00;1.85;;;;;;;18.35;100.00;100969.88;10578260;28;20067;-74
2023/08/06 13:32:20;;;;;;;7.35;2.08;;;;;;;17.61;100.00;100979.91;10580116;28;20093;-71
2023/08/06 13:37:20;;;;;;;6.50;2.38;;;;;;;16.99;100.00;100996.06;10576960;28;20062;-73
2023/08/06 13:42:21;;;;;;;2.33;1.83;;;;;;;16.67;100.00;100997.19;10578661;28;20036;-72
2023/08/06 13:47:22;;;;;;;3.10;1.40;;;;;;;16.66;100.00;101009.22;10579949;28;20039;-75
2023/08/06 13:52:22;;;;;;;6.32;2.55;;;;;;;16.41;100.00;101033.97;10578985;28;20390;-73
2023/08/06 13:57:22;;;;;;;6.55;2.58;;;;;;;15.93;100.00;101040.31;10576504;28;20028;-71
2023/08/06 14:02:23;;;;;;;4.40;2.65;;;;;;;15.56;100.00;101053.94;10559503;28;20032;-72
2023/08/06 14:07:23;;;;;;;4.97;2.42;;;;;;;15.49;100.00;101050.44;10577201;28;20424;-76
2023/08/06 14:12:24;;;;;;;8.32;2.05;;;;;;;15.48;100.00;101058.88;10578888;28;20035;-72
2023/08/06 14:17:24;;;;;;;5.20;2.83;;;;;;;15.49;100.00;101069.56;10559609;28;20130;-78
2023/08/06 14:22:25;;;;;;;4.13;1.27;;;;;;;15.73;100.00;101078.78;10577524;28;20122;-76
2023/08/06 14:27:25;;;;;;;4.22;2.40;;;;;;;15.56;100.00;101089.41;10578187;28;20032;-74
2023/08/06 14:32:26;;;;;;;7.28;2.05;;;;;;;15.59;100.00;101105.34;10579005;28;20394;-79
2023/08/06 14:37:26;;;;;;;11.57;2.40;;;;;;;15.81;100.00;101092.13;10576353;28;20144;-77
2023/08/06 14:42:26;;;;;;;6.22;2.28;;;;;;;16.06;100.00;101099.41;10577287;28;20099;-76
2023/08/06 14:47:27;;;;;;;13.48;3.08;;;;;;;16.26;100.00;101113.63;10578959;28;20115;-76
2023/08/06 14:52:27;;;;;;;6.35;2.03;;;;;;;16.21;100.00;101110.78;10576016;28;20521;-76
2023/08/06 14:57:28;;;;;;;3.72;2.08;;;;;;;16.00;100.00;101128.47;10576077;28;20114;-72
2023/08/06 15:02:28;;;;;;;4.18;1.63;;;;;;;15.99;100.00;101137.72;10576288;28;20043;-74
2023/08/06 15:07:30;;;;;;;3.03;2.15;;;;;;;16.18;100.00;101149.50;10576019;28;20036;-73
2023/08/06 15:12:31;;;;;;;1.75;1.42;;;;;;;16.22;100.00;101156.16;10580068;28;20100;-71
2023/08/06 15:17:32;;;;;;;5.20;2.10;;;;;;;16.41;100.00;101164.34;10584096;28;20486;-74
2023/08/06 15:22:32;;;;;;;6.43;2.13;;;;;;;16.47;100.00;101164.25;10586022;28;20039;-73
2023/08/06 15:27:33;;;;;;;11.25;3.13;;;;;;;16.18;100.00;101175.97;10585134;28;20028;-72
2023/08/06 15:32:34;;;;;;;5.78;2.13;;;;;;;15.67;100.00;101197.09;10585700;28;20055;-72
2023/08/06 15:37:34;;;;;;;11.85;3.00;;;;;;;15.60;100.00;101196.25;10587425;28;20083;-73
2023/08/06 15:42:35;;;;;;;7.53;2.67;;;;;;;15.58;100.00;101188.31;10590233;28;20089;-72
2023/08/06 15:47:40;;;;;;;15.88;3.17;;;;;;;15.73;100.00;101207.13;10595614;28;20073;-73
2023/08/06 15:52:40;;;;;;;5.07;2.40;;;;;;;15.90;100.00;101192.88;10585278;28;20050;-73
2023/08/06 15:57:40;;;;;;;16.85;4.20;;;;;;;16.17;100.00;101201.63;10583672;28;20090;-71
2023/08/06 16:02:41;;;;;;;5.35;3.55;;;;;;;16.28;100.00;101220.00;10582392;28;20024;-72
2023/08/06 16:07:41;;;;;;;2.97;2.63;;;;;;;16.32;100.00;101215.75;10583324;28;20063;-73
2023/08/06 16:12:42;;;;;;;4.05;1.15;;;;;;;16.55;100.00;101222.41;10581421;28;20031;-72
2023/08/06 16:17:42;;;;;;;8.48;1.98;;;;;;;16.48;100.00;101226.06;10583075;28;20129;-72
2023/08/06 16:22:43;;;;;;;9.18;2.78;;;;;;;16.27;100.00;101221.03;10582411;28;20551;-72
2023/08/06 16:27:43;;;;;;;1.50;1.40;;;;;;;16.23;100.00;101258.94;10564345;28;20036;-72
2023/08/06 16:32:43;;;;;;;8.40;2.22;;;;;;;15.53;100.00;101261.00;10582332;28;20487;-71
2023/08/06 16:37:46;;;;;;;4.15;1.80;;;;;;;15.22;100.00;101242.75;10580765;28;20048;-73
2023/08/06 16:42:47;;;;;;;4.40;2.40;;;;;;;15.48;100.00;101244.47;10564155;28;20037;-73
2023/08/06 16:47:49;;;;;;;4.60;1.98;;;;;;;15.59;100.00;101239.09;10581600;28;20050;-73
2023/08/06 16:52:50;;;;;;;7.90;3.10;;;;;;;15.66;100.00;101249.13;10581720;28;20095;-72
2023/08/06 16:57:50;;;;;;;9.77;2.08;;;;;;;15.66;100.00;101251.88;10581346;28;20031;-73
2023/08/06 17:02:51;;;;;;;3.58;2.28;;;;;;;15.58;100.00;101255.72;10581608;28;20031;-71
2023/08/06 17:07:52;;;;;;;12.50;2.30;;;;;;;15.65;100.00;101263.84;10581696;28;20032;-71
2023/08/06 17:12:53;;;;;;;6.38;1.65;;;;;;;15.74;100.00;101273.47;10580533;28;20046;-72
2023/08/06 17:17:53;;;;;;;2.63;1.40;;;;;;;15.89;100.00;101271.25;10581527;28;20032;-71
2023/08/06 17:22:53;;;;;;;4.90;2.20;;;;;;;15.95;100.00;101283.16;10563260;28;20043;-70
2023/08/06 17:27:54;;;;;;;11.60;2.58;;;;;;;16.01;100.00;101279.53;10579086;28;20102;-73
2023/08/06 17:32:54;;;;;;;8.40;3.05;;;;;;;15.98;100.00;101290.91;10578172;28;20028;-72
2023/08/06 17:37:57;;;;;;;5.07;2.45;;;;;;;15.70;100.00;101289.47;10578385;28;20051;-71
2023/08/06 17:42:57;;;;;;;11.68;2.67;;;;;;;15.58;100.00;101280.28;10579709;28;20083;-71
2023/08/06 17:47:57;;;;;;;6.90;2.20;;;;;;;15.66;100.00;101301.84;10578852;28;20031;-72
2023/08/06 17:52:58;;;;;;;2.53;1.77;;;;;;;15.72;100.00;101308.34;10579183;28;20031;-72
2023/08/06 17:57:59;;;;;;;6.10;2.60;;;;;;;15.56;100.00;101315.97;10578925;28;20097;-73
2023/08/06 18:02:59;;;;;;;7.43;2.22;;;;;;;15.13;100.00;101326.75;10579114;28;20055;-72
2023/08/06 18:07:59;;;;;;;5.80;2.40;;;;;;;14.88;100.00;101329.38;10579281;28;20039;-70
2023/08/06 18:13:00;;;;;;;3.90;2.95;;;;;;;14.84;100.00;101328.13;10578612;28;20031;-72
2023/08/06 18:18:00;;;;;;;3.38;1.40;;;;;;;14.82;100.00;101335.69;10584064;28;20040;-72
2023/08/06 18:23:01;;;;;;;10.38;1.75;;;;;;;14.87;100.00;101325.81;10578162;28;20118;-72
2023/08/06 18:28:01;;;;;;;8.30;3.13;;;;;;;14.89;100.00;101336.50;10578078;28;20040;-71
2023/08/06 18:33:02;;;;;;;15.43;3.40;;;;;;;14.80;100.00;101316.78;10576417;28;20040;-72
2023/08/06 18:38:03;;;;;;;9.43;3.80;;;;;;;14.88;100.00;101332.09;10577863;28;20108;-71
2023/08/06 18:43:04;;;;;;;10.68;2.47;;;;;;;14.96;100.00;101331.00;10577414;28;20532;-71
2023/08/06 18:48:05;;;;;;;11.07;4.78;;;;;;;14.87;100.00;101324.97;10577302;28;20031;-71
2023/08/06 18:53:06;;;;;;;5.50;2.75;;;;;;;14.89;100.00;101333.75;10576307;28;20487;-72
2023/08/06 18:58:09;;;;;;;11.15;3.17;;;;;;;14.92;100.00;101340.69;10576327;28;20110;-72
2023/08/06 19:03:09;;;;;;;12.23;3.25;;;;;;;14.87;100.00;101357.69;10577588;28;20332;-72
2023/08/06 19:08:11;;;;;;;9.02;2.42;;;;;;;14.96;100.00;101345.47;10577379;28;20028;-73
2023/08/06 19:13:11;;;;;;;6.03;2.30;;;;;;;14.96;100.00;101342.75;10576852;28;20054;-72
2023/08/06 19:18:12;;;;;;;4.15;2.92;;;;;;;14.90;100.00;101346.38;10576496;28;20252;-72
2023/08/06 19:23:20;;;;;;;14.93;3.58;;;;;;;14.92;100.00;101346.97;10576223;28;20082;-73
2023/08/06 19:28:20;;;;;;;6.90;3.25;;;;;;;15.02;100.00;101351.97;10576748;28;20435;-72
2023/08/06 19:33:21;;;;;;;10.55;4.13;;;;;;;15.14;100.00;101360.31;10576418;28;20188;-72
2023/08/06 19:38:23;;;;;;;4.25;2.60;;;;;;;15.23;100.00;101356.28;10575801;28;20052;-72
2023/08/06 19:43:23;;;;;;;8.57;3.03;;;;;;;15.25;100.00;101365.06;10557903;28;20350;-73
2023/08/06 19:48:24;;;;;;;8.57;3.45;;;;;;;15.05;100.00;101374.19;10576918;28;20066;-73
2023/08/06 19:53:25;;;;;;;12.63;3.10;;;;;;;14.90;100.00;101368.19;10575897;28;20031;-72
2023/08/06 19:58:26;;;;;;;14.55;2.90;;;;;;;14.86;100.00;101367.75;10578670;28;20043;-72
2023/08/06 20:03:28;;;;;;;5.32;2.97;;;;;;;14.97;100.00;101362.69;10583248;28;20459;-72
2023/08/06 20:08:29;;;;;;;14.32;3.05;;;;;;;14.89;100.00;101369.22;10582879;28;20038;-72
2023/08/06 20:13:29;;;;;;;10.30;3.92;;;;;;;14.73;100.00;101365.06;10583783;28;20031;-72
2023/08/06 20:18:29;;;;;;;2.08;1.73;;;;;;;14.66;100.00;101358.78;10582707;28;20028;-73
2023/08/06 20:23:30;;;;;;;9.93;3.22;;;;;;;14.64;100.00;101367.19;10583039;28;20525;-73
2023/08/06 20:28:31;;;;;;;11.23;4.05;;;;;;;14.53;100.00;101376.00;10583370;28;20118;-73
2023/08/06 20:33:35;;;;;;;9.43;3.40;;;;;;;14.29;100.00;101384.78;10582438;28;20478;-73
2023/08/06 20:38:36;;;;;;;13.50;3.60;;;;;;;14.04;100.00;101366.38;10582501;28;20380;-73
2023/08/06 20:43:36;;;;;;;12.60;3.33;;;;;;;14.04;100.00;101382.72;10584674;28;20166;-72
2023/08/06 20:48:36;;;;;;;12.70;2.58;;;;;;;14.15;100.00;101379.34;10473776;28;20071;-70
2023/08/06 20:53:37;;;;;;;22.60;3.35;;;;;;;14.28;100.00;101388.56;10503599;28;20036;-72
2023/08/06 20:58:37;;;;;;;8.75;2.00;;;;;;;14.08;100.00;101394.03;10496920;28;20069;-71
2023/08/06 21:03:38;;;;;;;7.50;2.30;;;;;;;13.68;100.00;101394.78;10497852;28;20082;-71
2023/08/06 21:08:38;;;;;;;9.18;3.35;;;;;;;13.58;100.00;101388.91;10496842;28;20087;-72
2023/08/06 21:13:38;;;;;;;15.05;3.28;;;;;;;13.61;100.00;101398.56;10495811;28;20058;-72
2023/08/06 21:18:39;;;;;;;13.23;2.45;;;;;;;13.61;100.00;101404.00;10496091;28;20395;-73
2023/08/06 21:23:40;;;;;;;7.88;1.75;;;;;;;13.60;100.00;101408.59;10496566;28;20039;-72
2023/08/06 21:28:41;;;;;;;4.65;2.85;;;;;;;13.67;100.00;101408.63;10478338;28;20072;-72
2023/08/06 21:33:42;;;;;;;17.48;4.28;;;;;;;13.79;100.00;101411.59;10494804;28;20064;-73
2023/08/06 21:38:43;;;;;;;10.30;2.72;;;;;;;13.82;100.00;101408.44;10494762;28;20036;-72
2023/08/06 21:43:45;;;;;;;13.82;3.30;;;;;;;13.80;100.00;101410.53;10495509;28;20036;-72
2023/08/06 21:48:46;;;;;;;5.57;2.38;;;;;;;13.90;100.00;101405.53;10495414;28;20021;-71
2023/08/06 21:53:47;;;;;;;11.35;3.67;;;;;;;13.95;100.00;101408.47;10493877;28;20029;-73
2023/08/06 21:58:48;;;;;;;18.83;3.75;;;;;;;14.09;100.00;101406.59;10493816;28;20464;-72
2023/08/06 22:03:49;;;;;;;8.70;3.45;;;;;;;14.10;100.00;101391.91;10495669;28;20036;-72
2023/08/06 22:08:49;;;;;;;14.48;3.50;;;;;;;14.18;100.00;101392.56;10494806;28;20032;-71
2023/08/06 22:13:49;;;;;;;4.32;3.55;;;;;;;14.28;100.00;101399.47;10492363;28;20033;-72
2023/08/06 22:18:50;;;;;;;9.55;4.95;;;;;;;14.36;100.00;101407.44;10493904;28;20095;-72
2023/08/06 22:23:50;;;;;;;12.40;3.15;;;;;;;14.43;100.00;101402.81;10475760;28;20044;-72
2023/08/06 22:28:51;;;;;;;9.27;3.60;;;;;;;14.42;100.00;101403.84;10494074;28;20033;-71
2023/08/06 22:33:52;;;;;;;12.15;3.28;;;;;;;14.45;100.00;101399.88;10493885;28;20132;-71
2023/08/06 22:38:52;;;;;;;12.23;2.70;;;;;;;14.46;100.00;101413.31;10459646;28;20044;-71
2023/08/06 22:43:53;;;;;;;12.38;3.15;;;;;;;14.46;100.00;101393.41;10494125;28;20463;-72